Time;durP1;ratioP1;P1;durP2;ratioP2;P2;SDS_P1;SDS_P2;PMS_P1;PMS_P2;Temp;Humidity;BMP_temperature;BMP_pressure;BME280_temperature;BME280_humidity;BME280_pressure;Samples;Min_cycle;Max_cycle;Signal;HPM_P1;HPM_P2
2021/04/09 00:02:26;;;;;;;11.43;4.92;;;;;;;3.99;45.71;101362.70;1777689;81;21146;-68
2021/04/09 00:04:55;;;;;;;8.55;4.17;;;;;;;3.96;45.79;101368.72;1778873;81;21195;-50
2021/04/09 00:07:24;;;;;;;6.85;4.20;;;;;;;3.93;45.80;101362.52;1778986;81;21166;-69
2021/04/09 00:09:52;;;;;;;8.13;4.10;;;;;;;3.87;45.75;101369.30;1778188;81;21172;-51
2021/04/09 00:12:21;;;;;;;7.08;3.72;;;;;;;3.86;45.79;101369.27;1769950;81;21570;-51
2021/04/09 00:14:50;;;;;;;8.35;3.65;;;;;;;3.84;45.79;101371.80;1768666;80;21157;-51
2021/04/09 00:17:18;;;;;;;10.65;5.17;;;;;;;3.84;45.89;101378.75;1768772;81;21132;-51
2021/04/09 00:19:48;;;;;;;6.75;4.30;;;;;;;3.82;45.89;101385.63;1758669;81;21123;-51
2021/04/09 00:22:16;;;;;;;8.10;4.55;;;;;;;3.80;45.92;101381.66;1768765;81;21163;-68
2021/04/09 00:24:44;;;;;;;8.28;4.65;;;;;;;3.77;46.04;101381.99;1769203;81;21131;-67
2021/04/09 00:27:12;;;;;;;8.43;4.22;;;;;;;3.76;46.16;101383.69;1765929;81;21151;-67
2021/04/09 00:29:41;;;;;;;8.15;4.45;;;;;;;3.75;46.21;101383.66;1750481;80;21127;-50
2021/04/09 00:32:10;;;;;;;8.60;4.75;;;;;;;3.72;46.31;101385.33;1756574;82;21167;-68
2021/04/09 00:34:37;;;;;;;8.50;3.95;;;;;;;3.71;46.20;101384.00;1756361;81;21189;-68
2021/04/09 00:37:14;;;;;;;9.35;4.33;;;;;;;3.71;46.05;101386.16;1828020;77;22107;-66
2021/04/09 00:39:41;;;;;;;5.90;3.65;;;;;;;3.63;46.10;101390.67;1728144;82;21313;-49
2021/04/09 00:42:19;;;;;;;6.33;3.77;;;;;;;3.61;46.08;101398.84;1714694;84;21171;-66
2021/04/09 00:44:46;;;;;;;7.03;3.45;;;;;;;3.58;45.97;101400.91;1714657;83;21167;-49
2021/04/09 00:47:14;;;;;;;7.72;3.50;;;;;;;3.59;46.17;101399.21;1706813;82;21595;-67
2021/04/09 00:49:42;;;;;;;6.47;3.17;;;;;;;3.61;46.23;101399.72;1697341;83;21231;-51
2021/04/09 00:52:12;;;;;;;6.72;2.80;;;;;;;3.65;46.33;101397.68;1699246;84;21217;-67
2021/04/09 00:54:40;;;;;;;6.95;3.10;;;;;;;3.66;46.28;101397.28;1701058;83;21187;-49
2021/04/09 00:57:08;;;;;;;6.58;3.08;;;;;;;3.66;46.37;101405.96;1711656;82;21183;-50
2021/04/09 00:59:36;;;;;;;7.10;3.65;;;;;;;3.64;46.33;101401.55;1713907;84;21194;-49
2021/04/09 01:02:06;;;;;;;7.90;3.22;;;;;;;3.64;46.38;101405.02;1725890;83;21193;-67
2021/04/09 01:04:33;;;;;;;9.63;3.45;;;;;;;3.64;46.33;101402.42;1725813;82;21632;-68
2021/04/09 01:07:03;;;;;;;6.20;3.02;;;;;;;3.61;46.29;101404.92;1725982;82;21302;-68
2021/04/09 01:09:36;;;;;;;7.17;3.20;;;;;;;3.57;46.36;101403.95;1725682;83;21182;-50
2021/04/09 01:12:06;;;;;;;6.35;3.12;;;;;;;3.59;46.38;101408.32;1725910;83;21622;-50
2021/04/09 01:14:35;;;;;;;6.65;3.52;;;;;;;3.58;46.42;101406.13;1721768;82;21131;-68
2021/04/09 01:17:12;;;;;;;6.35;3.17;;;;;;;3.58;46.40;101404.81;1699892;83;21166;-68
2021/04/09 01:20:12;;;;;;;6.70;3.98;;;;;;;3.57;46.42;101409.16;1725852;83;21182;-68
2021/04/09 01:22:45;;;;;;;;;;;;;;;3.58;46.50;101410.02;1728212;83;21577;-49
2021/04/09 01:25:44;;;;;;;5.53;3.17;;;;;;;3.58;46.46;101413.93;1724297;82;20235;-67
2021/04/09 01:28:19;;;;;;;6.58;3.35;;;;;;;3.57;46.47;101414.77;1667046;84;21151;-51
2021/04/09 01:31:21;;;;;;;8.40;3.85;;;;;;;3.49;46.38;101417.55;1689208;84;21179;-67
2021/04/09 01:33:55;;;;;;;6.35;3.10;;;;;;;3.46;46.41;101416.15;1713446;82;21198;-67
2021/04/09 01:36:40;;;;;;;6.80;3.37;;;;;;;3.40;46.57;101422.91;1719826;83;21087;-50
2021/04/09 01:39:22;;;;;;;6.75;3.55;;;;;;;3.41;46.60;101427.28;1748709;82;21155;-50
2021/04/09 01:41:50;;;;;;;8.53;3.00;;;;;;;3.40;46.57;101427.22;1755154;81;21123;-67
2021/04/09 01:44:23;;;;;;;6.42;3.08;;;;;;;3.38;46.63;101422.38;1747930;81;21151;-67
2021/04/09 01:46:51;;;;;;;7.03;3.15;;;;;;;3.36;46.51;101431.84;1738310;82;21159;-68
2021/04/09 01:49:21;;;;;;;7.00;3.70;;;;;;;3.34;46.66;101430.91;1748193;81;21200;-50
2021/04/09 01:51:49;;;;;;;6.47;3.70;;;;;;;3.35;46.77;101432.67;1755195;81;21159;-68
2021/04/09 01:54:17;;;;;;;7.97;3.40;;;;;;;3.34;46.83;101440.92;1737646;82;21626;-50
2021/04/09 01:56:45;;;;;;;6.22;3.58;;;;;;;3.32;46.78;101440.37;1748032;82;21571;-68
2021/04/09 01:59:13;;;;;;;8.05;3.58;;;;;;;3.29;46.92;101440.30;1737426;82;21705;-68
2021/04/09 02:01:41;;;;;;;7.05;3.42;;;;;;;3.29;46.87;101445.50;1755112;81;21152;-68
2021/04/09 02:04:09;;;;;;;8.10;3.20;;;;;;;3.23;46.70;101447.06;1694848;82;21131;-51
2021/04/09 02:06:37;;;;;;;6.08;3.02;;;;;;;3.16;46.93;101446.77;1737827;82;21171;-68
2021/04/09 02:09:05;;;;;;;5.35;3.17;;;;;;;3.16;47.01;101445.47;1718540;81;21108;-69
2021/04/09 02:11:34;;;;;;;7.58;3.77;;;;;;;2.23;48.96;101453.34;1747180;81;21174;-69
2021/04/09 02:14:05;;;;;;;6.67;3.37;;;;;;;2.08;49.43;101453.63;1748613;81;21215;-68
2021/04/09 02:16:35;;;;;;;6.35;3.80;;;;;;;2.03;49.70;101458.62;1750407;81;21129;-68
2021/04/09 02:19:04;;;;;;;6.33;3.35;;;;;;;1.99;49.83;101461.05;1763873;81;21700;-51
2021/04/09 02:21:36;;;;;;;6.17;3.45;;;;;;;1.93;49.93;101467.77;1748160;81;21191;-51
2021/04/09 02:24:05;;;;;;;5.60;3.30;;;;;;;1.88;49.97;101466.69;1748415;82;21171;-68
2021/04/09 02:26:32;;;;;;;6.42;3.50;;;;;;;2.76;48.17;101461.84;1747952;82;21151;-51
2021/04/09 02:29:00;;;;;;;6.50;3.60;;;;;;;2.84;47.91;101466.91;1753984;81;21135;-50
2021/04/09 02:31:28;;;;;;;7.92;3.95;;;;;;;2.88;47.89;101463.99;1748386;81;21207;-68
2021/04/09 02:33:56;;;;;;;6.72;3.22;;;;;;;2.94;47.68;101465.09;1748522;81;21171;-68
2021/04/09 02:36:27;;;;;;;6.05;3.17;;;;;;;2.93;47.55;101465.05;1754778;81;21088;-68
2021/04/09 02:39:19;;;;;;;11.28;3.77;;;;;;;2.88;47.40;101465.30;1722172;82;21178;-68
2021/04/09 02:41:56;;;;;;;5.75;2.95;;;;;;;2.81;47.41;101468.97;1712279;84;21179;-49
2021/04/09 02:44:24;;;;;;;6.12;4.00;;;;;;;2.72;47.47;101466.45;1723900;81;21120;-51
2021/04/09 02:47:01;;;;;;;7.05;3.92;;;;;;;2.65;47.60;101464.91;1755046;81;21147;-68
2021/04/09 02:49:43;;;;;;;5.50;3.35;;;;;;;2.61;48.04;101469.52;1747475;81;21135;-51
2021/04/09 02:52:25;;;;;;;6.83;3.00;;;;;;;2.62;47.94;101463.92;1748424;81;21430;-68
2021/04/09 03:02:32;;;;;;;8.70;2.72;;;;;;;1.70;50.79;101484.98;1843441;77;20131;-66
2021/04/09 03:04:59;;;;;;;5.17;2.87;;;;;;;1.67;50.89;101483.98;1791630;78;21542;-65
2021/04/09 03:07:27;;;;;;;6.53;3.40;;;;;;;1.70;50.94;101490.61;1727529;81;21131;-49
2021/04/09 03:09:55;;;;;;;4.92;2.67;;;;;;;1.71;50.95;101494.55;1730619;83;21204;-48
2021/04/09 03:12:23;;;;;;;5.72;2.65;;;;;;;1.74;51.26;101494.67;1742955;82;21130;-68
2021/04/09 03:14:52;;;;;;;7.50;3.62;;;;;;;1.76;51.12;101493.03;1752595;81;21150;-50
2021/04/09 03:17:27;;;;;;;5.33;3.08;;;;;;;1.78;51.17;101500.87;1750728;82;21241;-68
2021/04/09 03:19:55;;;;;;;6.70;2.83;;;;;;;1.78;51.39;101499.57;1781665;80;21179;-68
2021/04/09 03:22:24;;;;;;;6.75;3.40;;;;;;;1.81;51.33;101502.30;1767080;80;21166;-52
2021/04/09 03:24:51;;;;;;;5.80;2.98;;;;;;;1.82;51.32;101504.08;1758351;81;21605;-69
2021/04/09 03:27:20;;;;;;;6.90;3.08;;;;;;;1.84;51.47;101510.64;1752619;81;21147;-51
2021/04/09 03:29:48;;;;;;;6.58;3.37;;;;;;;1.87;51.55;101501.69;1742812;81;21127;-68
2021/04/09 03:32:17;;;;;;;7.15;4.12;;;;;;;1.90;51.70;101507.87;1751145;81;21166;-51
2021/04/09 03:34:46;;;;;;;5.67;3.10;;;;;;;1.97;51.73;101504.24;1750535;81;21158;-52
2021/04/09 03:37:14;;;;;;;7.83;3.98;;;;;;;2.00;51.71;101506.97;1742779;81;21110;-52
2021/04/09 03:39:41;;;;;;;7.45;4.15;;;;;;;2.03;51.68;101505.80;1744730;81;21130;-69
2021/04/09 03:42:11;;;;;;;5.37;3.65;;;;;;;2.10;51.68;101510.81;1750134;81;21578;-52
2021/04/09 03:44:38;;;;;;;6.40;3.65;;;;;;;2.14;51.76;101510.12;1767085;80;21619;-53
2021/04/09 03:47:07;;;;;;;11.63;3.50;;;;;;;2.23;51.94;101513.09;1730228;81;21281;-54
2021/04/09 03:49:36;;;;;;;6.87;4.00;;;;;;;2.29;51.77;101514.64;1743093;81;21142;-69
2021/04/09 03:52:05;;;;;;;7.15;3.60;;;;;;;2.32;51.73;101514.77;1742170;81;21265;-68
2021/04/09 03:54:33;;;;;;;7.67;3.67;;;;;;;2.40;51.73;101521.98;1741705;81;21162;-68
2021/04/09 03:57:04;;;;;;;8.33;3.70;;;;;;;2.50;51.72;101518.90;1737220;82;21281;-68
2021/04/09 03:59:32;;;;;;;7.78;4.03;;;;;;;2.61;51.50;101521.94;1740836;81;21166;-69
2021/04/09 04:02:00;;;;;;;7.25;4.12;;;;;;;2.71;51.45;101524.04;1729490;82;21144;-52
2021/04/09 04:04:29;;;;;;;7.28;4.10;;;;;;;2.86;51.30;101526.77;1724606;82;21139;-53
2021/04/09 04:06:56;;;;;;;6.80;3.70;;;;;;;2.92;51.17;101529.17;1726124;82;21155;-68
2021/04/09 04:09:24;;;;;;;13.30;4.90;;;;;;;3.06;51.17;101531.01;1736507;82;21371;-51
2021/04/09 04:11:52;;;;;;;6.45;3.90;;;;;;;3.19;51.05;101532.34;1784622;80;21198;-69
2021/04/09 04:14:21;;;;;;;8.55;4.25;;;;;;;3.31;51.08;101531.02;1763872;80;21269;-52
2021/04/09 04:16:48;;;;;;;7.92;4.50;;;;;;;3.41;50.90;101536.61;1766462;80;21661;-68
2021/04/09 04:19:18;;;;;;;7.03;4.10;;;;;;;3.45;50.78;101540.62;1756451;81;21290;-68
2021/04/09 04:21:46;;;;;;;7.78;3.95;;;;;;;3.58;50.76;101544.10;1781416;80;21562;-68
2021/04/09 04:24:14;;;;;;;9.35;4.90;;;;;;;4.28;49.09;101539.52;1758341;80;21115;-51
2021/04/09 04:26:42;;;;;;;9.20;4.95;;;;;;;4.63;48.30;101547.99;1756583;80;21613;-68
2021/04/09 04:29:10;;;;;;;9.15;4.67;;;;;;;4.80;48.07;101555.02;1776592;80;21326;-68
2021/04/09 04:31:40;;;;;;;8.88;5.03;;;;;;;4.86;47.92;101557.79;1775389;79;21139;-69
2021/04/09 04:34:08;;;;;;;8.90;5.00;;;;;;;4.91;47.69;101560.56;1756275;80;21192;-52
2021/04/09 04:36:36;;;;;;;8.15;4.90;;;;;;;4.99;47.75;101562.98;1762770;80;21175;-53
2021/04/09 04:39:05;;;;;;;7.80;4.42;;;;;;;5.06;47.87;101564.04;1756124;81;21167;-69
2021/04/09 04:41:35;;;;;;;8.05;4.60;;;;;;;5.10;48.02;101570.22;1758445;80;21075;-53
2021/04/09 04:44:03;;;;;;;10.75;5.28;;;;;;;5.22;47.77;101567.97;1759877;80;21154;-54
2021/04/09 04:46:31;;;;;;;8.30;5.17;;;;;;;5.23;47.82;101568.44;1707372;83;21597;-53
2021/04/09 04:48:59;;;;;;;8.13;4.62;;;;;;;5.36;47.53;101574.48;1773214;80;21139;-52
2021/04/09 04:51:26;;;;;;;11.80;6.00;;;;;;;5.44;47.75;101575.13;1704923;83;21106;-68
2021/04/09 04:53:54;;;;;;;9.15;5.20;;;;;;;5.56;47.59;101579.36;1766311;80;21292;-51
2021/04/09 04:56:22;;;;;;;8.90;5.37;;;;;;;5.71;47.63;101574.11;1778705;80;21186;-68
2021/04/09 04:58:52;;;;;;;8.40;5.17;;;;;;;5.86;47.78;101577.55;1767538;80;21140;-69
2021/04/09 05:01:19;;;;;;;9.75;5.20;;;;;;;6.03;47.62;101576.70;1779300;80;21343;-52
2021/04/09 05:03:47;;;;;;;12.43;5.55;;;;;;;6.19;47.67;101580.59;1779719;79;21542;-52
2021/04/09 05:06:15;;;;;;;7.15;4.78;;;;;;;6.35;47.55;101576.65;1779109;81;21286;-68
2021/04/09 05:08:43;;;;;;;10.58;5.15;;;;;;;6.56;47.11;101578.89;1779054;81;21143;-52
2021/04/09 05:11:11;;;;;;;8.73;5.58;;;;;;;6.80;46.99;101585.53;1798244;79;21159;-51
2021/04/09 05:13:38;;;;;;;11.88;4.87;;;;;;;7.01;46.98;101585.13;1741964;82;21123;-52
2021/04/09 05:16:06;;;;;;;7.97;5.08;;;;;;;7.21;46.84;101585.98;1780624;79;21147;-69
2021/04/09 05:18:34;;;;;;;9.03;5.42;;;;;;;7.29;46.42;101590.52;1810179;79;21124;-54
2021/04/09 05:21:01;;;;;;;7.72;4.40;;;;;;;7.53;45.99;101587.92;1785609;79;21151;-52
2021/04/09 05:23:29;;;;;;;8.65;4.80;;;;;;;7.75;45.70;101584.42;1779096;81;21134;-67
2021/04/09 05:25:57;;;;;;;8.15;4.85;;;;;;;7.99;45.09;101583.98;1779019;81;21643;-52
2021/04/09 05:28:25;;;;;;;8.93;5.42;;;;;;;8.24;44.87;101588.33;1782620;79;21143;-67
2021/04/09 05:30:56;;;;;;;7.92;4.78;;;;;;;8.44;44.75;101594.34;1740784;81;21281;-68
2021/04/09 05:33:24;;;;;;;10.40;5.30;;;;;;;8.65;44.37;101594.24;1779146;81;21111;-52
2021/04/09 05:35:52;;;;;;;7.55;4.47;;;;;;;8.91;44.24;101591.59;1779087;81;21583;-68
2021/04/09 05:38:21;;;;;;;8.75;4.80;;;;;;;9.15;44.53;101588.83;1798318;79;21174;-56
2021/04/09 05:40:48;;;;;;;14.60;5.83;;;;;;;9.36;42.49;101589.97;1713590;82;21622;-66
2021/04/09 05:43:17;;;;;;;12.10;4.72;;;;;;;9.56;42.42;101587.58;1779124;79;21147;-54
2021/04/09 05:45:44;;;;;;;8.50;4.85;;;;;;;9.77;43.02;101584.71;1778915;81;21144;-67
2021/04/09 05:48:13;;;;;;;9.68;4.62;;;;;;;9.87;43.08;101584.40;1780633;79;21736;-55
2021/04/09 05:50:40;;;;;;;8.15;4.95;;;;;;;9.91;42.97;101581.80;1778983;79;21175;-68
2021/04/09 05:53:08;;;;;;;9.60;4.83;;;;;;;9.98;41.89;101582.73;1783183;79;21119;-54
2021/04/09 05:55:36;;;;;;;9.25;4.80;;;;;;;10.11;41.88;101583.30;1783150;79;21151;-54
2021/04/09 05:58:03;;;;;;;7.50;4.08;;;;;;;10.34;42.47;101582.63;1781577;79;21131;-54
2021/04/09 06:00:31;;;;;;;8.18;4.80;;;;;;;10.47;41.28;101582.73;1726150;82;21674;-54
2021/04/09 06:03:01;;;;;;;6.63;4.20;;;;;;;10.59;40.98;101585.46;1787780;79;21103;-67
2021/04/09 06:05:30;;;;;;;6.55;4.00;;;;;;;10.71;40.54;101593.45;1778829;81;21125;-67
2021/04/09 06:07:58;;;;;;;7.03;4.28;;;;;;;10.85;41.01;101592.64;1778935;81;21150;-54
2021/04/09 06:10:26;;;;;;;8.83;4.28;;;;;;;10.98;41.05;101589.66;1779004;80;21194;-67
2021/04/09 06:12:54;;;;;;;8.83;4.20;;;;;;;11.16;40.49;101592.38;1746806;81;21266;-67
2021/04/09 06:15:22;;;;;;;8.10;4.37;;;;;;;11.39;40.49;101595.56;1675543;82;21596;-54
2021/04/09 06:17:49;;;;;;;6.70;4.00;;;;;;;11.54;39.48;101601.31;1795057;79;21547;-66
2021/04/09 06:20:18;;;;;;;6.78;3.77;;;;;;;11.62;39.52;101596.52;1778801;81;21147;-67
2021/04/09 06:22:47;;;;;;;8.95;3.95;;;;;;;11.83;39.62;101597.87;1721252;82;21583;-55
2021/04/09 06:25:17;;;;;;;5.83;3.50;;;;;;;12.05;39.82;101601.91;1783224;79;21160;-66
2021/04/09 06:27:45;;;;;;;7.67;4.58;;;;;;;12.30;39.55;101604.13;1810617;79;21139;-54
2021/04/09 06:30:14;;;;;;;6.42;3.90;;;;;;;12.59;38.64;101602.32;1810659;79;21161;-67
2021/04/09 06:32:42;;;;;;;7.22;4.00;;;;;;;12.79;38.69;101605.83;1721005;82;21148;-54
2021/04/09 06:35:11;;;;;;;6.72;4.03;;;;;;;12.96;39.01;101606.25;1807900;79;21446;-55
2021/04/09 06:37:41;;;;;;;7.72;5.78;;;;;;;13.26;38.67;101604.80;1779426;79;21142;-66
2021/04/09 06:40:12;;;;;;;9.28;6.40;;;;;;;13.46;38.17;101606.97;1758095;79;21309;-66
2021/04/09 06:42:45;;;;;;;7.17;4.25;;;;;;;13.66;37.33;101606.86;1782726;80;21546;-54
2021/04/09 06:45:15;;;;;;;6.20;3.67;;;;;;;13.81;37.53;101615.16;1711485;84;21633;-54
2021/04/09 06:47:43;;;;;;;8.18;3.65;;;;;;;13.95;34.96;101610.23;1778751;81;21179;-55
2021/04/09 06:50:12;;;;;;;5.80;3.92;;;;;;;14.02;36.16;101611.05;1778813;79;21123;-67
2021/04/09 06:52:40;;;;;;;7.10;3.45;;;;;;;14.13;36.38;101620.67;1778818;81;21195;-66
2021/04/09 06:55:09;;;;;;;7.53;3.80;;;;;;;14.38;36.30;101620.50;1755941;80;21594;-55
2021/04/09 06:57:40;;;;;;;7.67;4.10;;;;;;;14.48;35.67;101619.10;1778937;79;21163;-55
2021/04/09 07:00:09;;;;;;;;;;;;;;;14.65;35.50;101610.53;1715668;82;21178;-54
2021/04/09 07:02:37;;;;;;;4.85;3.77;;;;;;;14.67;35.33;101611.86;1713890;84;20148;-55
2021/04/09 07:05:07;;;;;;;7.10;3.70;;;;;;;14.81;34.28;101613.94;1784711;79;21108;-54
2021/04/09 07:07:35;;;;;;;6.15;4.15;;;;;;;14.60;34.90;101614.98;1800611;79;21103;-55
2021/04/09 07:10:05;;;;;;;6.75;3.87;;;;;;;14.65;34.58;101614.97;1816591;79;21143;-66
2021/04/09 07:12:34;;;;;;;8.23;4.20;;;;;;;14.66;33.46;101609.64;1817175;79;21178;-66
2021/04/09 07:15:09;;;;;;;5.72;3.92;;;;;;;14.75;34.39;101619.33;1794196;79;21134;-67
2021/04/09 07:17:48;;;;;;;8.20;3.67;;;;;;;14.89;33.89;101618.28;1784984;79;21606;-65
2021/04/09 07:20:22;;;;;;;6.87;3.77;;;;;;;15.01;33.46;101616.84;1784856;80;21586;-66
2021/04/09 07:22:53;;;;;;;5.62;3.85;;;;;;;15.22;34.03;101614.38;1784853;80;21557;-66
2021/04/09 07:25:22;;;;;;;5.53;3.90;;;;;;;15.41;33.62;101620.80;1793707;79;21540;-65
2021/04/09 07:28:12;;;;;;;5.80;3.60;;;;;;;15.58;33.06;101632.52;1816094;79;21155;-55
2021/04/09 07:30:51;;;;;;;4.55;3.15;;;;;;;15.54;30.10;101619.72;1816706;79;21182;-64
2021/04/09 07:33:21;;;;;;;4.90;3.10;;;;;;;15.27;29.79;101623.17;1800097;79;21155;-54
2021/04/09 07:36:00;;;;;;;6.17;2.98;;;;;;;15.34;30.56;101622.63;1793491;79;21581;-56
2021/04/09 07:38:35;;;;;;;4.03;2.67;;;;;;;15.53;31.01;101627.72;1744778;82;21132;-65
2021/04/09 07:41:09;;;;;;;6.53;3.47;;;;;;;15.59;30.22;101627.64;1784760;80;21115;-54
2021/04/09 07:43:41;;;;;;;5.45;3.22;;;;;;;15.74;31.45;101627.41;1792131;79;21131;-65
2021/04/09 07:46:28;;;;;;;57.25;6.83;;;;;;;15.98;30.27;101616.49;1784950;80;21586;-54
2021/04/09 07:49:04;;;;;;;21.40;4.80;;;;;;;16.16;29.60;101616.22;1785031;80;21178;-65
2021/04/09 07:51:34;;;;;;;9.68;3.85;;;;;;;16.39;29.28;101622.92;1784719;79;21124;-66
2021/04/09 07:54:09;;;;;;;10.82;3.95;;;;;;;16.30;28.87;101626.63;1790615;79;21578;-55
2021/04/09 07:56:45;;;;;;;6.33;4.00;;;;;;;16.29;29.85;101622.20;1784679;79;21146;-64
2021/04/09 07:59:13;;;;;;;6.53;3.95;;;;;;;16.48;30.30;101619.25;1784912;79;21163;-65
2021/04/09 08:01:47;;;;;;;4.35;2.85;;;;;;;16.86;29.39;101612.36;1784667;79;21080;-64
2021/04/09 08:04:16;;;;;;;6.20;3.50;;;;;;;17.32;28.46;101609.27;1792735;80;21163;-55
2021/04/09 08:06:43;;;;;;;3.90;2.95;;;;;;;17.69;28.93;101612.45;1792900;80;21135;-55
2021/04/09 08:09:11;;;;;;;5.05;3.20;;;;;;;17.82;27.66;101611.73;1793090;80;21108;-66
2021/04/09 08:11:39;;;;;;;4.90;3.77;;;;;;;17.66;28.11;101607.66;1777957;79;21582;-55
2021/04/09 08:14:16;;;;;;;4.83;2.95;;;;;;;17.74;27.22;101606.15;1771831;81;21147;-55
2021/04/09 08:16:49;;;;;;;4.20;2.90;;;;;;;17.73;25.00;101611.94;1771637;81;21112;-65
2021/04/09 08:19:24;;;;;;;5.90;3.17;;;;;;;17.40;25.60;101613.11;1774629;79;21269;-55
2021/04/09 08:21:55;;;;;;;5.80;3.22;;;;;;;16.87;26.67;101623.42;1707853;83;21128;-60
2021/04/09 08:24:26;;;;;;;4.95;3.40;;;;;;;16.75;28.47;101615.67;1803691;79;21195;-61
2021/04/09 08:26:54;;;;;;;7.60;4.00;;;;;;;17.05;28.13;101622.66;1775030;79;21084;-51
2021/04/09 08:29:23;;;;;;;8.75;3.45;;;;;;;16.97;27.54;101624.62;1773976;79;21180;-60
2021/04/09 08:31:51;;;;;;;4.12;3.08;;;;;;;16.78;27.04;101617.80;1774891;79;21147;-64
2021/04/09 08:34:20;;;;;;;5.12;3.05;;;;;;;16.31;26.62;101622.20;1785178;79;21184;-62
2021/04/09 08:36:52;;;;;;;5.37;3.10;;;;;;;15.64;27.22;101618.28;1803539;79;21606;-54
2021/04/09 08:39:21;;;;;;;5.80;3.33;;;;;;;15.40;28.46;101615.93;1786966;79;21538;-61
2021/04/09 08:41:49;;;;;;;4.47;3.12;;;;;;;15.51;28.54;101619.77;1792968;80;21551;-65
2021/04/09 08:44:19;;;;;;;;;;;;;;;15.83;28.88;101620.23;1795632;80;21761;-64
2021/04/09 08:46:47;;;;;;;4.70;3.15;;;;;;;16.00;28.07;101614.70;1787982;79;20168;-65
2021/04/09 08:49:16;;;;;;;4.03;2.87;;;;;;;16.01;28.27;101620.00;1756695;79;21301;-65
2021/04/09 08:51:44;;;;;;;6.12;3.35;;;;;;;15.98;27.37;101617.82;1693980;83;21182;-54
2021/04/09 08:54:29;;;;;;;4.22;2.83;;;;;;;16.09;28.34;101614.56;1771659;81;21159;-53
2021/04/09 08:57:01;;;;;;;4.53;2.62;;;;;;;16.42;28.09;101614.05;1782603;79;21111;-57
2021/04/09 08:59:41;;;;;;;6.08;2.80;;;;;;;16.77;26.57;101613.86;1792665;80;21127;-54
2021/04/09 09:02:24;;;;;;;3.85;2.55;;;;;;;16.76;26.70;101616.09;1792728;80;21580;-53
2021/04/09 09:05:01;;;;;;;4.92;2.92;;;;;;;16.85;25.71;101614.59;1760011;80;21154;-64
2021/04/09 09:07:54;;;;;;;5.17;3.00;;;;;;;16.87;26.32;101619.87;1732945;82;21162;-65
2021/04/09 09:10:31;;;;;;;;;;;;;;;16.76;26.25;101617.42;1728098;83;21173;-66
2021/04/09 09:13:15;;;;;;;3.58;2.62;;;;;;;16.79;26.56;101616.90;1725690;83;20171;-65
2021/04/09 09:15:54;;;;;;;4.83;2.87;;;;;;;16.87;27.21;101611.89;1747384;82;21139;-66
2021/04/09 09:18:35;;;;;;;4.92;3.00;;;;;;;17.12;26.79;101614.98;1834771;77;22120;-64
2021/04/09 09:21:12;;;;;;;6.87;3.40;;;;;;;17.12;26.17;101619.45;1728307;82;21191;-64
2021/04/09 09:23:56;;;;;;;7.05;3.42;;;;;;;17.09;26.35;101614.61;1712056;84;21633;-54
2021/04/09 09:26:38;;;;;;;4.60;3.22;;;;;;;16.85;25.49;101613.70;1704354;83;21169;-55
2021/04/09 09:29:27;;;;;;;5.03;3.00;;;;;;;16.38;25.98;101620.30;1678457;85;21178;-66
2021/04/09 09:32:06;;;;;;;4.55;3.17;;;;;;;16.08;26.85;101622.09;1681796;83;21187;-55
2021/04/09 09:34:38;;;;;;;5.83;3.37;;;;;;;16.14;26.89;101614.04;1714303;83;21202;-66
2021/04/09 09:37:21;;;;;;;4.83;3.00;;;;;;;16.39;27.02;101614.09;1678635;85;21586;-55
2021/04/09 09:40:02;;;;;;;;;;;;;;;16.80;27.19;101602.70;1697729;83;21627;-64
2021/04/09 09:42:34;;;;;;;5.93;3.70;;;;;;;17.11;26.14;101610.58;1717630;83;20278;-53
2021/04/09 09:45:09;;;;;;;4.53;3.10;;;;;;;17.31;25.57;101607.98;1711908;83;21178;-54
2021/04/09 09:47:44;;;;;;;4.53;2.75;;;;;;;17.41;24.96;101604.66;1720540;83;21206;-54
2021/04/09 09:50:25;;;;;;;4.37;3.25;;;;;;;17.40;26.66;101607.79;1719204;83;21151;-65
2021/04/09 09:53:03;;;;;;;4.45;3.25;;;;;;;17.38;26.13;101605.14;1713936;83;21202;-64
2021/04/09 09:55:41;;;;;;;4.55;3.35;;;;;;;17.21;27.27;101605.97;1703110;84;21142;-54
2021/04/09 09:58:23;;;;;;;4.47;2.95;;;;;;;17.18;27.28;101608.22;1713603;84;21150;-65
2021/04/09 10:01:00;;;;;;;5.00;3.10;;;;;;;17.31;25.76;101598.66;1715726;83;21142;-65
2021/04/09 10:03:35;;;;;;;5.30;2.70;;;;;;;17.33;25.79;101597.71;1718212;83;21729;-64
2021/04/09 10:06:12;;;;;;;5.67;3.37;;;;;;;17.62;27.01;101593.56;1698108;83;21161;-54
2021/04/09 10:08:44;;;;;;;4.65;3.33;;;;;;;18.24;27.47;101586.78;1674642;83;21123;-64
2021/04/09 10:11:16;;;;;;;4.58;2.90;;;;;;;18.50;24.12;101588.36;1719557;83;21166;-64
2021/04/09 10:13:46;;;;;;;4.70;3.30;;;;;;;18.60;25.27;101580.55;1701372;83;21134;-65
2021/04/09 10:16:20;;;;;;;5.50;3.42;;;;;;;18.73;24.20;101586.41;1684150;85;21171;-67
2021/04/09 10:18:54;;;;;;;5.62;3.50;;;;;;;18.85;24.72;101578.08;1700655;82;21606;-66
2021/04/09 10:21:30;;;;;;;3.92;2.60;;;;;;;19.15;24.83;101572.81;1704054;83;21157;-65
2021/04/09 10:24:17;;;;;;;3.52;2.55;;;;;;;19.66;23.66;101570.40;1708631;83;21142;-66
2021/04/09 10:26:58;;;;;;;5.65;3.10;;;;;;;19.84;22.69;101576.09;1697401;83;21193;-65
2021/04/09 10:29:34;;;;;;;4.83;3.45;;;;;;;19.25;23.79;101589.42;1698842;84;21165;-64
2021/04/09 10:32:05;;;;;;;5.42;3.50;;;;;;;18.42;24.83;101596.09;1692222;83;21166;-53
2021/04/09 10:34:34;;;;;;;4.67;3.12;;;;;;;17.77;25.39;101591.44;1691146;85;21189;-54
2021/04/09 10:37:06;;;;;;;3.67;2.62;;;;;;;17.33;26.18;101596.37;1684582;83;21163;-65
2021/04/09 10:39:38;;;;;;;4.15;3.08;;;;;;;17.17;26.91;101596.30;1714052;84;21147;-55
2021/04/09 10:42:07;;;;;;;4.05;2.83;;;;;;;17.21;27.07;101588.67;1711531;83;21201;-66
2021/04/09 10:44:35;;;;;;;3.90;2.60;;;;;;;17.47;27.03;101580.11;1680310;84;21174;-66
2021/04/09 10:47:07;;;;;;;4.35;3.10;;;;;;;17.94;26.89;101573.28;1723812;83;21194;-54
2021/04/09 10:49:39;;;;;;;3.85;2.72;;;;;;;18.71;26.58;101567.80;1712817;83;21166;-66
2021/04/09 10:52:10;;;;;;;4.30;2.87;;;;;;;19.16;25.16;101567.03;1696586;84;21217;-66
2021/04/09 10:54:41;;;;;;;4.15;2.72;;;;;;;19.42;24.21;101567.59;1708482;83;21536;-65
2021/04/09 10:57:15;;;;;;;4.33;3.00;;;;;;;19.57;24.78;101551.98;1714415;83;21587;-54
2021/04/09 10:59:44;;;;;;;4.55;3.17;;;;;;;19.85;24.75;101554.66;1722406;83;21612;-65
2021/04/09 11:02:20;;;;;;;4.87;3.42;;;;;;;19.65;22.76;101547.77;1698877;83;21186;-54
2021/04/09 11:04:55;;;;;;;3.62;2.85;;;;;;;19.08;23.73;101554.37;1809755;77;22586;-64
2021/04/09 11:07:45;;;;;;;4.00;2.95;;;;;;;18.69;23.64;101558.97;1757942;81;21684;-53
2021/04/09 11:10:37;;;;;;;4.53;2.70;;;;;;;18.26;24.02;101558.30;1729271;83;21216;-53
2021/04/09 11:13:05;;;;;;;3.60;2.47;;;;;;;17.82;24.32;101566.47;1753516;81;21146;-65
2021/04/09 11:15:41;;;;;;;4.37;2.62;;;;;;;17.39;25.29;101566.12;1758555;81;21164;-54
2021/04/09 11:18:09;;;;;;;4.30;2.55;;;;;;;17.13;26.23;101561.35;1761780;81;21162;-66
2021/04/09 11:20:44;;;;;;;4.70;2.58;;;;;;;17.44;26.83;101564.20;1744868;81;21189;-64
2021/04/09 11:23:14;;;;;;;4.95;2.83;;;;;;;17.86;25.23;101554.41;1735077;81;21570;-54
2021/04/09 11:25:49;;;;;;;5.67;2.52;;;;;;;17.90;24.59;101552.96;1761833;81;21167;-54
2021/04/09 11:28:28;;;;;;;3.22;2.00;;;;;;;17.85;24.38;101560.18;1748906;81;21186;-65
2021/04/09 11:31:03;;;;;;;4.30;2.10;;;;;;;18.04;24.71;101558.45;1697551;84;21126;-54
2021/04/09 11:33:36;;;;;;;5.78;2.55;;;;;;;18.23;25.18;101550.39;1699542;84;21335;-53
2021/04/09 11:36:22;;;;;;;4.42;2.75;;;;;;;18.32;25.20;101551.08;1714600;84;21124;-63
2021/04/09 11:38:53;;;;;;;2.95;2.20;;;;;;;18.28;25.47;101563.14;1699223;83;21174;-54
2021/04/09 11:41:29;;;;;;;5.20;2.72;;;;;;;18.10;25.70;101569.81;1707319;84;21558;-54
2021/04/09 11:44:01;;;;;;;5.12;2.83;;;;;;;17.91;27.02;101575.13;1685519;84;21165;-64
2021/04/09 11:46:34;;;;;;;3.45;2.58;;;;;;;17.57;27.37;101572.81;1695406;84;21157;-54
2021/04/09 11:49:06;;;;;;;4.20;2.40;;;;;;;17.27;27.86;101561.91;1670549;84;21232;-52
2021/04/09 11:51:36;;;;;;;5.72;2.70;;;;;;;17.29;28.84;101561.90;1714644;83;21180;-66
2021/04/09 11:54:07;;;;;;;4.60;2.50;;;;;;;17.66;30.57;101558.41;1725534;83;21722;-54
2021/04/09 11:56:46;;;;;;;4.22;2.33;;;;;;;18.25;29.32;101543.23;1711813;83;21308;-65
2021/04/09 11:59:19;;;;;;;4.60;2.62;;;;;;;18.91;29.36;101545.48;1708071;83;21174;-65